createdAt,value
2023-11-21T00:00:42.293Z,988.82
2023-11-21T00:01:42.420Z,988.84
2023-11-21T00:02:42.532Z,988.85
2023-11-21T00:03:42.335Z,988.87
2023-11-21T00:04:42.287Z,988.89
2023-11-21T00:05:42.279Z,988.89
2023-11-21T00:06:42.290Z,988.90
2023-11-21T00:07:42.265Z,988.91
2023-11-21T00:08:42.215Z,988.91
2023-11-21T00:09:42.196Z,988.91
2023-11-21T00:10:42.239Z,988.91
2023-11-21T00:11:42.186Z,988.91
2023-11-21T00:12:42.190Z,988.91
2023-11-21T00:13:42.229Z,988.91
2023-11-21T00:14:42.160Z,988.93
2023-11-21T00:15:42.169Z,988.94
2023-11-21T00:16:42.220Z,988.95
2023-11-21T00:17:42.174Z,988.95
2023-11-21T00:18:42.116Z,988.95
2023-11-21T00:19:42.140Z,988.95
2023-11-21T00:20:42.114Z,988.94
2023-11-21T00:21:42.073Z,988.94
2023-11-21T00:22:42.135Z,988.96
2023-11-21T00:23:42.079Z,988.96
2023-11-21T00:24:42.076Z,988.96
2023-11-21T00:25:42.080Z,988.96
2023-11-21T00:26:42.036Z,988.95
2023-11-21T00:27:42.013Z,988.96
2023-11-21T00:28:42.027Z,988.97
2023-11-21T00:29:42.017Z,988.98
2023-11-21T00:30:41.987Z,988.98
2023-11-21T00:31:42.008Z,988.99
2023-11-21T00:32:42.052Z,988.99
2023-11-21T00:33:42.042Z,988.99
2023-11-21T00:34:41.986Z,988.97
2023-11-21T00:35:41.926Z,988.96
2023-11-21T00:36:41.933Z,988.95
2023-11-21T00:37:41.932Z,988.95
2023-11-21T00:38:41.917Z,988.95
2023-11-21T00:39:41.914Z,988.96
2023-11-21T00:40:41.916Z,988.98
2023-11-21T00:41:41.865Z,988.99
2023-11-21T00:42:41.886Z,989.02
2023-11-21T00:43:41.918Z,989.03
2023-11-21T00:44:41.857Z,989.05
2023-11-21T00:45:41.832Z,989.06
2023-11-21T00:46:41.861Z,989.08
2023-11-21T00:47:41.823Z,989.08
2023-11-21T00:48:41.809Z,989.07
2023-11-21T00:49:41.799Z,989.08
2023-11-21T00:50:41.775Z,989.08
2023-11-21T00:51:41.761Z,989.08
2023-11-21T00:52:41.825Z,989.08
2023-11-21T00:53:41.761Z,989.08
2023-11-21T00:54:41.738Z,989.10
2023-11-21T00:55:41.790Z,989.11
2023-11-21T00:56:41.720Z,989.12
2023-11-21T00:57:41.743Z,989.13
2023-11-21T00:58:41.725Z,989.15
2023-11-21T00:59:41.683Z,989.16
2023-11-21T01:00:41.720Z,989.16
2023-11-21T01:01:41.680Z,989.16
2023-11-21T01:02:41.816Z,989.18
2023-11-21T01:03:41.679Z,989.20
2023-11-21T01:04:41.656Z,989.21
2023-11-21T01:05:41.628Z,989.22
2023-11-21T01:06:41.638Z,989.22
2023-11-21T01:07:41.679Z,989.23
2023-11-21T01:08:41.610Z,989.23
2023-11-21T01:09:41.574Z,989.24
2023-11-21T01:10:41.594Z,989.25
2023-11-21T01:11:41.578Z,989.25
2023-11-21T01:12:41.543Z,989.25
2023-11-21T01:13:41.640Z,989.25
2023-11-21T01:14:41.535Z,989.26
2023-11-21T01:15:41.506Z,989.26
2023-11-21T01:16:41.574Z,989.26
2023-11-21T01:17:41.557Z,989.26
2023-11-21T01:18:41.506Z,989.26
2023-11-21T01:19:41.533Z,989.26
2023-11-21T01:20:41.486Z,989.26
2023-11-21T01:21:41.479Z,989.27
2023-11-21T01:22:41.476Z,989.28
2023-11-21T01:23:41.435Z,989.28
2023-11-21T01:24:41.427Z,989.29
2023-11-21T01:25:41.463Z,989.29
2023-11-21T01:26:41.405Z,989.29
2023-11-21T01:27:41.398Z,989.31
2023-11-21T01:28:41.440Z,989.33
2023-11-21T01:29:41.371Z,989.34
2023-11-21T01:30:41.385Z,989.35
2023-11-21T01:31:41.464Z,989.34
2023-11-21T01:32:41.537Z,989.32
2023-11-21T01:33:41.335Z,989.31
2023-11-21T01:34:41.352Z,989.30
2023-11-21T01:35:41.320Z,989.30
2023-11-21T01:36:41.293Z,989.31
2023-11-21T01:37:41.316Z,989.32
2023-11-21T01:38:41.278Z,989.33
2023-11-21T01:39:41.288Z,989.34
2023-11-21T01:40:41.289Z,989.35
2023-11-21T01:41:41.244Z,989.37
2023-11-21T01:42:41.259Z,989.38
2023-11-21T01:43:41.273Z,989.39
2023-11-21T01:44:41.249Z,989.39
2023-11-21T01:45:41.207Z,989.41
2023-11-21T01:46:41.236Z,989.42
2023-11-21T01:47:41.243Z,989.44
2023-11-21T01:48:41.250Z,989.45
2023-11-21T01:49:41.212Z,989.45
2023-11-21T01:50:41.151Z,989.46
2023-11-21T01:51:41.130Z,989.48
2023-11-21T01:52:41.132Z,989.50
2023-11-21T01:53:41.128Z,989.50
2023-11-21T01:54:41.110Z,989.49
2023-11-21T01:55:41.109Z,989.47
2023-11-21T01:56:41.087Z,989.45
2023-11-21T01:57:41.066Z,989.46
2023-11-21T01:58:41.130Z,989.48
2023-11-21T01:59:41.045Z,989.49
2023-11-21T02:00:41.047Z,989.49
2023-11-21T02:01:41.057Z,989.49
2023-11-21T02:02:41.103Z,989.51
2023-11-21T02:03:41.134Z,989.53
2023-11-21T02:04:41.013Z,989.56
2023-11-21T02:05:40.987Z,989.59
2023-11-21T02:06:40.980Z,989.59
2023-11-21T02:07:41.040Z,989.61
2023-11-21T02:08:40.960Z,989.63
2023-11-21T02:09:40.972Z,989.66
2023-11-21T02:10:40.985Z,989.69
2023-11-21T02:11:40.928Z,989.72
2023-11-21T02:12:40.922Z,989.74
2023-11-21T02:13:40.936Z,989.74
2023-11-21T02:14:40.937Z,989.74
2023-11-21T02:15:40.884Z,989.73
2023-11-21T02:16:40.911Z,989.72
2023-11-21T02:17:40.929Z,989.73
2023-11-21T02:18:41.037Z,989.74
2023-11-21T02:19:40.881Z,989.74
2023-11-21T02:20:40.829Z,989.73
2023-11-21T02:21:40.850Z,989.72
2023-11-21T02:22:40.863Z,989.72
2023-11-21T02:23:40.815Z,989.72
2023-11-21T02:24:40.797Z,989.73
2023-11-21T02:25:40.922Z,989.73
2023-11-21T02:26:40.785Z,989.72
2023-11-21T02:27:40.772Z,989.72
2023-11-21T02:28:40.826Z,989.71
2023-11-21T02:29:40.743Z,989.71
2023-11-21T02:30:40.747Z,989.71
2023-11-21T02:31:41.356Z,989.68
2023-11-21T02:32:48.599Z,989.66
2023-11-21T02:33:40.702Z,989.67
2023-11-21T02:34:40.704Z,989.69
2023-11-21T02:35:41.436Z,989.71
2023-11-21T02:36:40.691Z,989.73
2023-11-21T02:37:40.733Z,989.74
2023-11-21T02:38:40.649Z,989.72
2023-11-21T02:39:40.639Z,989.69
2023-11-21T02:40:41.124Z,989.68
2023-11-21T02:41:40.608Z,989.68
2023-11-21T02:42:40.598Z,989.68
2023-11-21T02:43:40.613Z,989.68
2023-11-21T02:44:40.604Z,989.68
2023-11-21T02:45:40.599Z,989.68
2023-11-21T02:46:40.733Z,989.68
2023-11-21T02:47:40.611Z,989.66
2023-11-21T02:48:40.541Z,989.65
2023-11-21T02:49:40.587Z,989.64
2023-11-21T02:50:40.614Z,989.64
2023-11-21T02:51:40.504Z,989.64
2023-11-21T02:52:40.522Z,989.65
2023-11-21T02:53:40.488Z,989.66
2023-11-21T02:54:40.491Z,989.65
2023-11-21T02:55:40.500Z,989.65
2023-11-21T02:56:40.457Z,989.66
2023-11-21T02:57:40.446Z,989.68
2023-11-21T02:58:40.500Z,989.69
2023-11-21T02:59:40.441Z,989.71
2023-11-21T03:00:40.425Z,989.73
2023-11-21T03:01:40.454Z,989.75
2023-11-21T03:02:41.252Z,989.77
2023-11-21T03:03:40.489Z,989.78
2023-11-21T03:04:40.401Z,989.79
2023-11-21T03:05:40.369Z,989.82
2023-11-21T03:06:40.349Z,989.83
2023-11-21T03:07:40.400Z,989.83
2023-11-21T03:08:40.377Z,989.83
2023-11-21T03:09:40.323Z,989.83
2023-11-21T03:10:40.323Z,989.82
2023-11-21T03:11:40.306Z,989.82
2023-11-21T03:12:40.625Z,989.82
2023-11-21T03:13:40.330Z,989.81
2023-11-21T03:14:40.263Z,989.80
2023-11-21T03:15:40.290Z,989.80
2023-11-21T03:16:40.305Z,989.80
2023-11-21T03:17:40.361Z,989.81
2023-11-21T03:18:40.360Z,989.83
2023-11-21T03:19:40.255Z,989.84
2023-11-21T03:20:40.203Z,989.85
2023-11-21T03:21:40.205Z,989.87
2023-11-21T03:22:40.279Z,989.89
2023-11-21T03:23:40.167Z,989.90
2023-11-21T03:24:40.154Z,989.90
2023-11-21T03:25:40.238Z,989.89
2023-11-21T03:26:40.151Z,989.89
2023-11-21T03:27:40.183Z,989.89
2023-11-21T03:28:40.189Z,989.90
2023-11-21T03:29:40.107Z,989.91
2023-11-21T03:30:40.092Z,989.91
2023-11-21T03:31:40.158Z,989.92
2023-11-21T03:32:40.134Z,989.93
2023-11-21T03:33:40.080Z,989.93
2023-11-21T03:34:40.156Z,989.94
2023-11-21T03:35:40.048Z,989.95
2023-11-21T03:36:40.060Z,989.96
2023-11-21T03:37:40.072Z,989.98
2023-11-21T03:38:40.009Z,990.00
2023-11-21T03:39:40.025Z,990.02
2023-11-21T03:40:40.016Z,990.03
2023-11-21T03:41:40.014Z,990.05
2023-11-21T03:42:39.970Z,990.05
2023-11-21T03:43:39.991Z,990.06
2023-11-21T03:44:39.942Z,990.06
2023-11-21T03:45:39.954Z,990.07
2023-11-21T03:46:39.961Z,990.06
2023-11-21T03:47:39.959Z,990.05
2023-11-21T03:48:39.909Z,990.05
2023-11-21T03:49:39.956Z,990.05
2023-11-21T03:50:39.897Z,990.05
2023-11-21T03:51:39.887Z,990.05
2023-11-21T03:52:39.909Z,990.05
2023-11-21T03:53:39.865Z,990.07
2023-11-21T03:54:39.861Z,990.07
2023-11-21T03:55:39.911Z,990.07
2023-11-21T03:56:39.823Z,990.07
2023-11-21T03:57:39.811Z,990.06
2023-11-21T03:58:39.846Z,990.05
2023-11-21T03:59:39.812Z,990.06
2023-11-21T04:00:39.793Z,990.07
2023-11-21T04:01:39.797Z,990.09
2023-11-21T04:02:39.790Z,990.10
2023-11-21T04:03:39.857Z,990.11
2023-11-21T04:04:39.921Z,990.11
2023-11-21T04:05:39.741Z,990.10
2023-11-21T04:06:39.721Z,990.09
2023-11-21T04:07:39.850Z,990.10
2023-11-21T04:08:39.696Z,990.10
2023-11-21T04:09:39.709Z,990.11
2023-11-21T04:10:39.697Z,990.11
2023-11-21T04:11:39.673Z,990.11
2023-11-21T04:12:39.659Z,990.12
2023-11-21T04:13:39.675Z,990.13
2023-11-21T04:14:39.658Z,990.13
2023-11-21T04:15:39.636Z,990.14
2023-11-21T04:16:39.684Z,990.16
2023-11-21T04:17:39.668Z,990.16
2023-11-21T04:18:39.602Z,990.16
2023-11-21T04:19:39.605Z,990.17
2023-11-21T04:20:39.569Z,990.17
2023-11-21T04:21:39.560Z,990.19
2023-11-21T04:22:39.676Z,990.20
2023-11-21T04:23:39.560Z,990.22
2023-11-21T04:24:39.527Z,990.25
2023-11-21T04:25:39.556Z,990.28
2023-11-21T04:26:39.555Z,990.32
2023-11-21T04:27:39.501Z,990.34
2023-11-21T04:28:39.600Z,990.36
2023-11-21T04:29:39.486Z,990.37
2023-11-21T04:30:39.572Z,990.38
2023-11-21T04:31:39.582Z,990.39
2023-11-21T04:32:39.540Z,990.39
2023-11-21T04:33:39.471Z,990.39
2023-11-21T04:34:39.503Z,990.41
2023-11-21T04:35:39.431Z,990.43
2023-11-21T04:36:39.397Z,990.45
2023-11-21T04:37:39.576Z,990.46
2023-11-21T04:38:39.389Z,990.48
2023-11-21T04:39:39.407Z,990.50
2023-11-21T04:40:39.434Z,990.52
2023-11-21T04:41:39.371Z,990.54
2023-11-21T04:42:39.381Z,990.56
2023-11-21T04:43:39.352Z,990.58
2023-11-21T04:44:39.318Z,990.59
2023-11-21T04:45:39.316Z,990.61
2023-11-21T04:46:39.419Z,990.61
2023-11-21T04:47:39.349Z,990.62
2023-11-21T04:48:39.276Z,990.62
2023-11-21T04:49:39.335Z,990.63
2023-11-21T04:50:39.253Z,990.65
2023-11-21T04:51:39.293Z,990.67
2023-11-21T04:52:39.271Z,990.69
2023-11-21T04:53:39.241Z,990.71
2023-11-21T04:54:39.215Z,990.73
2023-11-21T04:55:39.278Z,990.76
2023-11-21T04:56:39.255Z,990.78
2023-11-21T04:57:39.206Z,990.82
2023-11-21T04:58:39.199Z,990.84
2023-11-21T04:59:39.201Z,990.86
2023-11-21T05:00:39.257Z,990.88
2023-11-21T05:01:39.187Z,990.89
2023-11-21T05:02:39.300Z,990.91
2023-11-21T05:03:39.201Z,990.91
2023-11-21T05:04:39.180Z,990.92
2023-11-21T05:05:39.126Z,990.94
2023-11-21T05:06:39.109Z,990.95
2023-11-21T05:07:39.143Z,990.95
2023-11-21T05:08:39.133Z,990.97
2023-11-21T05:09:39.058Z,990.98
2023-11-21T05:10:39.081Z,990.99
2023-11-21T05:11:39.055Z,990.99
2023-11-21T05:12:39.035Z,990.97
2023-11-21T05:13:39.041Z,990.96
2023-11-21T05:14:39.041Z,990.96
2023-11-21T05:15:39.040Z,990.95
2023-11-21T05:16:39.087Z,990.95
2023-11-21T05:17:39.095Z,990.96
2023-11-21T05:18:38.968Z,990.97
2023-11-21T05:19:38.994Z,990.97
2023-11-21T05:20:38.948Z,990.99
2023-11-21T05:21:38.947Z,991.00
2023-11-21T05:22:39.027Z,991.00
2023-11-21T05:23:38.922Z,991.00
2023-11-21T05:24:38.921Z,991.01
2023-11-21T05:25:41.094Z,991.02
2023-11-21T05:26:38.883Z,991.03
2023-11-21T05:27:38.880Z,991.04
2023-11-21T05:28:38.943Z,991.05
2023-11-21T05:29:39.158Z,991.06
2023-11-21T05:30:38.877Z,991.06
2023-11-21T05:31:38.985Z,991.07
2023-11-21T05:32:38.828Z,991.07
2023-11-21T05:33:38.828Z,991.09
2023-11-21T05:34:38.844Z,991.09
2023-11-21T05:35:38.846Z,991.11
2023-11-21T05:36:38.777Z,991.13
2023-11-21T05:37:38.797Z,991.16
2023-11-21T05:38:38.798Z,991.17
2023-11-21T05:39:38.750Z,991.18
2023-11-21T05:40:38.754Z,991.19
2023-11-21T05:41:38.728Z,991.20
2023-11-21T05:42:38.717Z,991.20
2023-11-21T05:43:38.849Z,991.19
2023-11-21T05:44:38.702Z,991.18
2023-11-21T05:45:38.691Z,991.18
2023-11-21T05:46:38.715Z,991.18
2023-11-21T05:47:38.811Z,991.18
2023-11-21T05:48:38.764Z,991.17
2023-11-21T05:49:38.709Z,991.18
2023-11-21T05:50:38.635Z,991.19
2023-11-21T05:51:38.636Z,991.20
2023-11-21T05:52:38.715Z,991.21
2023-11-21T05:53:38.608Z,991.22
2023-11-21T05:54:38.624Z,991.21
2023-11-21T05:55:38.649Z,991.22
2023-11-21T05:56:38.588Z,991.21
2023-11-21T05:57:38.579Z,991.21
2023-11-21T05:58:38.633Z,991.20
2023-11-21T05:59:38.547Z,991.20
2023-11-21T06:00:38.531Z,991.20
2023-11-21T06:01:38.600Z,991.21
2023-11-21T06:02:38.546Z,991.23
2023-11-21T06:03:38.728Z,991.25
2023-11-21T06:04:38.624Z,991.28
2023-11-21T06:05:38.487Z,991.30
2023-11-21T06:06:38.513Z,991.33
2023-11-21T06:07:38.509Z,991.33
2023-11-21T06:08:38.443Z,991.34
2023-11-21T06:09:38.451Z,991.35
2023-11-21T06:10:38.485Z,991.35
2023-11-21T06:11:38.450Z,991.36
2023-11-21T06:12:38.430Z,991.39
2023-11-21T06:13:38.457Z,991.41
2023-11-21T06:14:38.398Z,991.44
2023-11-21T06:15:38.401Z,991.46
2023-11-21T06:16:38.440Z,991.48
2023-11-21T06:17:38.561Z,991.50
2023-11-21T06:18:38.461Z,991.51
2023-11-21T06:19:38.384Z,991.52
2023-11-21T06:20:38.691Z,991.54
2023-11-21T06:21:38.252Z,991.55
2023-11-21T06:22:38.277Z,991.56
2023-11-21T06:23:38.329Z,991.58
2023-11-21T06:24:38.290Z,991.60
2023-11-21T06:25:38.459Z,991.61
2023-11-21T06:26:38.218Z,991.62
2023-11-21T06:27:38.257Z,991.62
2023-11-21T06:28:38.280Z,991.63
2023-11-21T06:29:38.234Z,991.64
2023-11-21T06:30:38.180Z,991.63
2023-11-21T06:31:38.172Z,991.63
2023-11-21T06:32:38.214Z,991.63
2023-11-21T06:33:38.134Z,991.64
2023-11-21T06:34:38.209Z,991.64
2023-11-21T06:35:38.110Z,991.65
2023-11-21T06:36:38.108Z,991.65
2023-11-21T06:37:38.148Z,991.66
2023-11-21T06:38:38.082Z,991.66
2023-11-21T06:39:38.089Z,991.67
2023-11-21T06:40:38.120Z,991.68
2023-11-21T06:41:38.051Z,991.70
2023-11-21T06:42:38.104Z,991.71
2023-11-21T06:43:38.081Z,991.70
2023-11-21T06:44:38.039Z,991.71
2023-11-21T06:45:38.007Z,991.73
2023-11-21T06:46:38.107Z,991.74
2023-11-21T06:47:38.149Z,991.76
2023-11-21T06:48:38.029Z,991.77
2023-11-21T06:49:38.000Z,991.78
2023-11-21T06:50:37.961Z,991.78
2023-11-21T06:51:37.940Z,991.79
2023-11-21T06:52:37.984Z,991.81
2023-11-21T06:53:39.296Z,991.82
2023-11-21T06:54:37.929Z,991.83
2023-11-21T06:55:37.939Z,991.84
2023-11-21T06:56:37.897Z,991.86
2023-11-21T06:57:37.894Z,991.87
2023-11-21T06:58:37.913Z,991.86
2023-11-21T06:59:37.857Z,991.87
2023-11-21T07:00:37.860Z,991.87
2023-11-21T07:01:37.864Z,991.89
2023-11-21T07:02:37.981Z,991.89
2023-11-21T07:03:37.900Z,991.91
2023-11-21T07:04:37.843Z,991.92
2023-11-21T07:05:37.795Z,991.94
2023-11-21T07:06:37.782Z,991.97
2023-11-21T07:07:37.881Z,991.98
2023-11-21T07:08:37.765Z,991.99
2023-11-21T07:09:37.747Z,992.00
2023-11-21T07:10:37.832Z,992.02
2023-11-21T07:11:38.275Z,992.04
2023-11-21T07:12:37.766Z,992.06
2023-11-21T07:13:37.721Z,992.08
2023-11-21T07:14:37.700Z,992.10
2023-11-21T07:15:37.733Z,992.11
2023-11-21T07:16:37.762Z,992.13
2023-11-21T07:17:40.956Z,992.15
2023-11-21T07:18:37.671Z,992.18
2023-11-21T07:19:37.666Z,992.19
2023-11-21T07:20:37.679Z,992.20
2023-11-21T07:21:37.644Z,992.21
2023-11-21T07:22:37.663Z,992.22
2023-11-21T07:23:37.602Z,992.22
2023-11-21T07:24:37.600Z,992.23
2023-11-21T07:25:37.665Z,992.24
2023-11-21T07:26:37.593Z,992.25
2023-11-21T07:27:37.553Z,992.27
2023-11-21T07:28:37.581Z,992.29
2023-11-21T07:29:37.550Z,992.31
2023-11-21T07:30:37.546Z,992.32
2023-11-21T07:31:37.629Z,992.34
2023-11-21T07:32:37.568Z,992.36
2023-11-21T07:33:37.496Z,992.39
2023-11-21T07:34:37.516Z,992.40
2023-11-21T07:35:37.532Z,992.42
2023-11-21T07:36:37.461Z,992.44
2023-11-21T07:37:37.534Z,992.45
2023-11-21T07:38:37.449Z,992.46
2023-11-21T07:39:37.447Z,992.46
2023-11-21T07:40:37.463Z,992.46
2023-11-21T07:41:37.456Z,992.45
2023-11-21T07:42:37.407Z,992.45
2023-11-21T07:43:37.430Z,992.44
2023-11-21T07:44:37.400Z,992.45
2023-11-21T07:45:37.376Z,992.46
2023-11-21T07:46:37.424Z,992.47
2023-11-21T07:47:37.523Z,992.48
2023-11-21T07:48:37.345Z,992.50
2023-11-21T07:49:37.364Z,992.52
2023-11-21T07:50:37.332Z,992.54
2023-11-21T07:51:37.324Z,992.55
2023-11-21T07:52:37.413Z,992.55
2023-11-21T07:53:37.308Z,992.56
2023-11-21T07:54:37.297Z,992.57
2023-11-21T07:55:37.301Z,992.58
2023-11-21T07:56:37.283Z,992.59
2023-11-21T07:57:37.255Z,992.61
2023-11-21T07:58:37.371Z,992.62
2023-11-21T07:59:37.236Z,992.62
2023-11-21T08:00:37.226Z,992.64
2023-11-21T08:01:37.239Z,992.65
2023-11-21T08:02:37.321Z,992.67
2023-11-21T08:03:37.319Z,992.68
2023-11-21T08:04:37.254Z,992.69
2023-11-21T08:05:37.886Z,992.70
2023-11-21T08:06:37.166Z,992.72
2023-11-21T08:07:37.165Z,992.73
2023-11-21T08:08:37.151Z,992.74
2023-11-21T08:09:37.132Z,992.75
2023-11-21T08:10:37.143Z,992.76
2023-11-21T08:11:37.190Z,992.77
2023-11-21T08:12:37.111Z,992.78
2023-11-21T08:13:37.090Z,992.78
2023-11-21T08:14:37.129Z,992.79
2023-11-21T08:15:37.073Z,992.80
2023-11-21T08:16:37.140Z,992.81
2023-11-21T08:17:37.325Z,992.83
2023-11-21T08:18:37.024Z,992.85
2023-11-21T08:19:37.080Z,992.87
2023-11-21T08:20:37.057Z,992.89
2023-11-21T08:21:37.007Z,992.91
2023-11-21T08:22:37.079Z,992.91
2023-11-21T08:23:36.971Z,992.93
2023-11-21T08:24:36.966Z,992.94
2023-11-21T08:25:36.961Z,992.95
2023-11-21T08:26:36.969Z,992.96
2023-11-21T08:27:36.950Z,992.96
2023-11-21T08:28:36.996Z,992.97
2023-11-21T08:29:36.925Z,992.99
2023-11-21T08:30:36.906Z,993.00
2023-11-21T08:31:36.904Z,993.00
2023-11-21T08:32:36.914Z,993.01
2023-11-21T08:33:36.898Z,993.02
2023-11-21T08:34:36.937Z,993.02
2023-11-21T08:35:36.917Z,993.02
2023-11-21T08:36:36.909Z,993.02
2023-11-21T08:37:36.842Z,993.02
2023-11-21T08:38:36.823Z,993.02
2023-11-21T08:39:36.803Z,993.02
2023-11-21T08:40:36.915Z,993.01
2023-11-21T08:41:36.799Z,993.00
2023-11-21T08:42:36.838Z,993.00
2023-11-21T08:43:36.805Z,993.00
2023-11-21T08:44:36.771Z,993.00
2023-11-21T08:45:36.873Z,993.01
2023-11-21T08:46:36.755Z,993.01
2023-11-21T08:47:36.722Z,993.02
2023-11-21T08:48:36.728Z,993.02
2023-11-21T08:49:36.746Z,993.02
2023-11-21T08:50:36.714Z,993.03
2023-11-21T08:51:36.678Z,993.03
2023-11-21T08:52:36.735Z,993.03
2023-11-21T08:53:36.671Z,993.05
2023-11-21T08:54:36.685Z,993.07
2023-11-21T08:55:36.658Z,993.08
2023-11-21T08:56:36.641Z,993.10
2023-11-21T08:57:36.625Z,993.10
2023-11-21T08:58:36.646Z,993.10
2023-11-21T08:59:36.672Z,993.10
2023-11-21T09:00:36.603Z,993.10
2023-11-21T09:01:36.612Z,993.11
2023-11-21T09:02:36.602Z,993.12
2023-11-21T09:03:36.591Z,993.13
2023-11-21T09:04:36.944Z,993.14
2023-11-21T09:05:36.537Z,993.15
2023-11-21T09:06:36.526Z,993.16
2023-11-21T09:07:36.578Z,993.17
2023-11-21T09:08:36.518Z,993.19
2023-11-21T09:09:36.511Z,993.20
2023-11-21T09:10:36.543Z,993.21
2023-11-21T09:11:36.472Z,993.21
2023-11-21T09:12:36.478Z,993.22
2023-11-21T09:13:36.480Z,993.23
2023-11-21T09:14:36.467Z,993.24
2023-11-21T09:15:36.434Z,993.26
2023-11-21T09:16:36.486Z,993.28
2023-11-21T09:17:36.505Z,993.29
2023-11-21T09:18:36.433Z,993.30
2023-11-21T09:19:36.398Z,993.31
2023-11-21T09:20:36.383Z,993.31
2023-11-21T09:21:36.484Z,993.31
2023-11-21T09:22:36.424Z,993.32
2023-11-21T09:23:36.375Z,993.33
2023-11-21T09:24:37.934Z,993.34
2023-11-21T09:25:36.368Z,993.35
2023-11-21T09:26:36.325Z,993.37
2023-11-21T09:27:36.320Z,993.38
2023-11-21T09:28:36.330Z,993.39
2023-11-21T09:29:36.273Z,993.41
2023-11-21T09:30:36.282Z,993.42
2023-11-21T09:31:36.273Z,993.41
2023-11-21T09:32:36.369Z,993.41
2023-11-21T09:33:36.234Z,993.40
2023-11-21T09:34:36.267Z,993.40
2023-11-21T09:35:36.256Z,993.39
2023-11-21T09:36:36.231Z,993.39
2023-11-21T09:37:36.223Z,993.38
2023-11-21T09:38:36.194Z,993.38
2023-11-21T09:39:36.180Z,993.38
2023-11-21T09:40:36.186Z,993.38
2023-11-21T09:41:36.233Z,993.38
2023-11-21T09:42:36.165Z,993.40
2023-11-21T09:43:36.218Z,993.41
2023-11-21T09:44:36.126Z,993.42
2023-11-21T09:45:36.132Z,993.43
2023-11-21T09:46:36.176Z,993.45
2023-11-21T09:47:36.116Z,993.46
2023-11-21T09:48:36.110Z,993.47
2023-11-21T09:49:36.111Z,993.47
2023-11-21T09:50:36.151Z,993.47
2023-11-21T09:51:36.061Z,993.47
2023-11-21T09:52:36.052Z,993.47
2023-11-21T09:53:36.045Z,993.47
2023-11-21T09:54:36.032Z,993.48
2023-11-21T09:55:36.124Z,993.48
2023-11-21T09:56:36.003Z,993.49
2023-11-21T09:57:36.692Z,993.50
2023-11-21T09:58:36.040Z,993.52
2023-11-21T09:59:35.962Z,993.53
2023-11-21T10:00:36.020Z,993.55
2023-11-21T10:01:36.002Z,993.57
2023-11-21T10:02:36.052Z,993.59
2023-11-21T10:03:35.967Z,993.61
2023-11-21T10:04:35.970Z,993.62
2023-11-21T10:05:35.985Z,993.63
2023-11-21T10:06:35.923Z,993.64
2023-11-21T10:07:35.908Z,993.65
2023-11-21T10:08:43.080Z,993.65
2023-11-21T10:09:35.884Z,993.66
2023-11-21T10:10:35.874Z,993.66
2023-11-21T10:11:35.844Z,993.67
2023-11-21T10:12:35.834Z,993.68
2023-11-21T10:13:35.874Z,993.68
2023-11-21T10:14:35.834Z,993.68
2023-11-21T10:15:35.802Z,993.69
2023-11-21T10:16:35.853Z,993.69
2023-11-21T10:17:35.861Z,993.70
2023-11-21T10:18:35.891Z,993.70
2023-11-21T10:19:35.772Z,993.71
2023-11-21T10:20:35.756Z,993.71
2023-11-21T10:21:35.748Z,993.71
2023-11-21T10:22:35.752Z,993.72
2023-11-21T10:23:35.762Z,993.73
2023-11-21T10:24:41.760Z,993.74
2023-11-21T10:25:35.736Z,993.74
2023-11-21T10:26:47.191Z,993.75
2023-11-21T10:27:35.690Z,993.75
2023-11-21T10:28:35.708Z,993.75
2023-11-21T10:29:35.656Z,993.75
2023-11-21T10:30:35.654Z,993.76
2023-11-21T10:31:35.770Z,993.77
2023-11-21T10:32:35.717Z,993.78
2023-11-21T10:33:35.784Z,993.79
2023-11-21T10:34:35.637Z,993.80
2023-11-21T10:35:35.603Z,993.81
2023-11-21T10:36:35.587Z,993.82
2023-11-21T10:37:35.727Z,993.82
2023-11-21T10:38:35.561Z,993.82
2023-11-21T10:39:35.562Z,993.82
2023-11-21T10:40:35.566Z,993.83
2023-11-21T10:41:35.590Z,993.83
2023-11-21T10:42:35.554Z,993.84
2023-11-21T10:43:36.216Z,993.84
2023-11-21T10:44:35.606Z,993.85
2023-11-21T10:45:35.508Z,993.85
2023-11-21T10:46:35.587Z,993.86
2023-11-21T10:47:35.500Z,993.87
2023-11-21T10:48:35.483Z,993.86
2023-11-21T10:49:35.501Z,993.87
2023-11-21T10:50:35.443Z,993.88
2023-11-21T10:51:35.482Z,993.89
2023-11-21T10:52:35.425Z,993.90
2023-11-21T10:53:35.495Z,993.90
2023-11-21T10:54:35.401Z,993.90
2023-11-21T10:55:35.428Z,993.89
2023-11-21T10:56:35.448Z,993.89
2023-11-21T10:57:35.399Z,993.89
2023-11-21T10:58:35.353Z,993.89
2023-11-21T10:59:35.355Z,993.90
2023-11-21T11:00:35.381Z,993.92
2023-11-21T11:01:35.484Z,993.92
2023-11-21T11:02:35.659Z,993.92
2023-11-21T11:03:35.348Z,993.92
2023-11-21T11:04:35.353Z,993.91
2023-11-21T11:05:35.396Z,993.92
2023-11-21T11:06:35.277Z,993.92
2023-11-21T11:07:35.364Z,993.92
2023-11-21T11:08:35.257Z,993.91
2023-11-21T11:09:35.318Z,993.90
2023-11-21T11:10:35.264Z,993.90
2023-11-21T11:11:35.297Z,993.89
2023-11-21T11:12:35.266Z,993.90
2023-11-21T11:13:35.284Z,993.90
2023-11-21T11:14:35.358Z,993.91
2023-11-21T11:15:35.273Z,993.92
2023-11-21T11:16:35.228Z,993.94
2023-11-21T11:17:35.273Z,993.95
2023-11-21T11:18:35.153Z,993.95
2023-11-21T11:19:35.222Z,993.95
2023-11-21T11:20:35.162Z,993.96
2023-11-21T11:21:35.149Z,993.97
2023-11-21T11:22:35.155Z,993.98
2023-11-21T11:23:35.133Z,993.98
2023-11-21T11:24:35.137Z,993.99
2023-11-21T11:25:35.161Z,994.00
2023-11-21T11:26:35.078Z,994.00
2023-11-21T11:27:35.087Z,994.01
2023-11-21T11:28:35.081Z,994.02
2023-11-21T11:29:35.059Z,994.02
2023-11-21T11:30:35.057Z,994.03
2023-11-21T11:31:35.096Z,994.03
2023-11-21T11:32:35.022Z,994.04
2023-11-21T11:33:36.777Z,994.05
2023-11-21T11:34:35.037Z,994.05
2023-11-21T11:35:34.982Z,994.05
2023-11-21T11:36:34.984Z,994.06
2023-11-21T11:37:35.038Z,994.06
2023-11-21T11:38:35.024Z,994.07
2023-11-21T11:39:34.943Z,994.08
2023-11-21T11:40:35.323Z,994.08
2023-11-21T11:41:34.922Z,994.08
2023-11-21T11:42:35.041Z,994.07
2023-11-21T11:43:34.936Z,994.09
2023-11-21T11:44:35.069Z,994.10
2023-11-21T11:45:35.010Z,994.10
2023-11-21T11:46:34.918Z,994.10
2023-11-21T11:47:35.997Z,994.09
2023-11-21T11:48:34.877Z,994.10
2023-11-21T11:49:34.904Z,994.10
2023-11-21T11:50:34.928Z,994.11
2023-11-21T11:51:34.883Z,994.10
2023-11-21T11:52:35.270Z,994.10
2023-11-21T11:53:34.802Z,994.10
2023-11-21T11:54:34.793Z,994.10
2023-11-21T11:55:36.154Z,994.11
2023-11-21T11:56:34.810Z,994.11
2023-11-21T11:57:35.337Z,994.11
2023-11-21T11:58:34.821Z,994.12
2023-11-21T11:59:34.740Z,994.12
2023-11-21T12:00:34.745Z,994.14
2023-11-21T12:01:35.165Z,994.16
2023-11-21T12:02:34.752Z,994.17
2023-11-21T12:03:34.827Z,994.19
2023-11-21T12:04:34.854Z,994.19
2023-11-21T12:05:34.698Z,994.21
2023-11-21T12:06:34.674Z,994.22
2023-11-21T12:07:34.662Z,994.22
2023-11-21T12:08:34.645Z,994.22
2023-11-21T12:09:34.645Z,994.20
2023-11-21T12:10:34.690Z,994.20
2023-11-21T12:11:34.649Z,994.20
2023-11-21T12:12:34.689Z,994.19
2023-11-21T12:13:34.609Z,994.19
2023-11-21T12:14:34.582Z,994.19
2023-11-21T12:15:35.012Z,994.20
2023-11-21T12:16:34.578Z,994.21
2023-11-21T12:17:34.963Z,994.21
2023-11-21T12:18:34.548Z,994.21
2023-11-21T12:19:34.636Z,994.21
2023-11-21T12:20:34.531Z,994.21
2023-11-21T12:21:34.537Z,994.22
2023-11-21T12:22:34.548Z,994.22
2023-11-21T12:23:34.522Z,994.23
2023-11-21T12:24:34.480Z,994.25
2023-11-21T12:25:34.537Z,994.25
2023-11-21T12:26:34.447Z,994.28
2023-11-21T12:27:34.559Z,994.30
2023-11-21T12:28:34.485Z,994.33